Time;durP1;ratioP1;P1;durP2;ratioP2;P2;SDS_P1;SDS_P2;PMS_P1;PMS_P2;Temp;Humidity;BMP_temperature;BMP_pressure;BME280_temperature;BME280_humidity;BME280_pressure;Samples;Min_cycle;Max_cycle;Signal;HPM_P1;HPM_P2
2021/04/09 00:01:53;;;;;;;14.25;4.80;;;;;;;;;;5020257;28;20102;-58
2021/04/09 00:04:19;;;;;;;14.00;5.22;;;;;;;;;;5015463;28;20057;-55
2021/04/09 00:06:45;;;;;;;20.08;6.35;;;;;;;;;;5006323;28;20050;-57
2021/04/09 00:09:11;;;;;;;17.17;6.28;;;;;;;;;;5002784;28;20060;-57
2021/04/09 00:11:38;;;;;;;15.30;5.90;;;;;;;;;;5006925;28;20544;-58
2021/04/09 00:14:05;;;;;;;12.90;5.60;;;;;;;;;;5021092;28;20038;-60
2021/04/09 00:16:31;;;;;;;13.65;6.22;;;;;;;;;;5000195;28;20046;-61
2021/04/09 00:18:57;;;;;;;14.00;5.88;;;;;;;;;;5005377;28;20033;-58
2021/04/09 00:21:24;;;;;;;12.98;5.53;;;;;;;;;;5017162;28;20119;-57
2021/04/09 00:23:50;;;;;;;18.38;6.18;;;;;;;;;;5040810;28;20052;-58
2021/04/09 00:26:16;;;;;;;18.13;6.35;;;;;;;;;;5025558;28;20042;-56
2021/04/09 00:28:42;;;;;;;14.48;6.40;;;;;;;;;;5004461;28;20057;-59
2021/04/09 00:31:09;;;;;;;13.20;5.57;;;;;;;;;;5029324;28;20041;-60
2021/04/09 00:33:35;;;;;;;15.48;6.03;;;;;;;;;;5024595;28;20037;-60
2021/04/09 00:36:02;;;;;;;16.13;6.60;;;;;;;;;;5018322;28;20119;-60
2021/04/09 00:38:29;;;;;;;17.27;6.47;;;;;;;;;;5023954;28;20045;-56
2021/04/09 00:40:55;;;;;;;15.38;6.03;;;;;;;;;;5015221;28;20085;-58
2021/04/09 00:43:21;;;;;;;13.68;6.13;;;;;;;;;;5022407;28;20053;-55
2021/04/09 00:45:47;;;;;;;13.43;5.93;;;;;;;;;;5032500;28;20042;-55
2021/04/09 00:48:14;;;;;;;18.65;7.10;;;;;;;;;;5003151;28;20547;-55
2021/04/09 00:50:39;;;;;;;21.08;7.70;;;;;;;;;;5000079;28;20061;-59
2021/04/09 00:53:07;;;;;;;17.20;6.85;;;;;;;;;;5002900;28;20040;-58
2021/04/09 00:55:34;;;;;;;15.95;6.30;;;;;;;;;;5004673;28;20053;-51
2021/04/09 00:58:00;;;;;;;17.05;6.25;;;;;;;;;;5001650;28;20094;-60
2021/04/09 01:00:26;;;;;;;19.45;6.25;;;;;;;;;;5003295;28;20131;-57
2021/04/09 01:02:57;;;;;;;18.10;6.32;;;;;;;;;;5016459;28;20052;-58
2021/04/09 01:05:24;;;;;;;12.38;5.55;;;;;;;;;;5023911;28;20503;-54
2021/04/09 01:07:50;;;;;;;15.73;6.03;;;;;;;;;;5037600;28;20041;-57
2021/04/09 01:10:17;;;;;;;17.60;6.38;;;;;;;;;;5040941;28;20048;-56
2021/04/09 01:12:44;;;;;;;15.93;6.32;;;;;;;;;;5025896;28;20057;-54
2021/04/09 01:15:11;;;;;;;18.92;6.88;;;;;;;;;;5003578;28;20052;-58
2021/04/09 01:17:39;;;;;;;16.15;5.85;;;;;;;;;;5000897;28;20046;-60
2021/04/09 01:20:25;;;;;;;14.65;6.15;;;;;;;;;;5021634;28;20058;-58
2021/04/09 01:22:56;;;;;;;14.90;6.50;;;;;;;;;;5007415;28;20048;-56
2021/04/09 01:25:39;;;;;;;16.08;6.32;;;;;;;;;;5031367;28;20049;-57
2021/04/09 01:28:11;;;;;;;14.45;5.93;;;;;;;;;;5009931;28;20369;-55
2021/04/09 01:30:52;;;;;;;14.25;6.20;;;;;;;;;;5019376;28;20056;-54
2021/04/09 01:33:20;;;;;;;16.75;6.07;;;;;;;;;;5004191;28;20070;-53
2021/04/09 01:35:46;;;;;;;17.92;6.57;;;;;;;;;;5026580;28;20057;-54
2021/04/09 01:38:13;;;;;;;14.38;5.82;;;;;;;;;;5019748;28;20029;-58
2021/04/09 01:40:41;;;;;;;15.13;6.20;;;;;;;;;;5023442;28;20033;-59
2021/04/09 01:43:09;;;;;;;15.97;6.07;;;;;;;;;;5015662;28;20041;-58
2021/04/09 01:45:35;;;;;;;20.10;6.50;;;;;;;;;;5010496;28;20468;-55
2021/04/09 01:48:03;;;;;;;15.07;6.28;;;;;;;;;;5019938;28;20049;-59
2021/04/09 01:50:32;;;;;;;16.15;6.70;;;;;;;;;;5022712;28;20050;-60
2021/04/09 01:53:00;;;;;;;12.05;6.28;;;;;;;;;;4995355;28;20026;-59
2021/04/09 01:55:26;;;;;;;14.82;6.18;;;;;;;;;;5015874;28;20042;-60
2021/04/09 01:57:53;;;;;;;19.30;5.90;;;;;;;;;;5024767;28;20034;-60
2021/04/09 02:00:21;;;;;;;20.65;6.60;;;;;;;;;;5016446;28;20139;-60
2021/04/09 02:02:49;;;;;;;15.10;6.25;;;;;;;;;;5024348;28;20128;-60
2021/04/09 02:05:16;;;;;;;14.40;6.30;;;;;;;;;;5029988;28;20151;-60
2021/04/09 02:07:43;;;;;;;16.65;6.28;;;;;;;;;;5002780;28;20045;-60
2021/04/09 02:10:10;;;;;;;12.95;5.80;;;;;;;;;;4987042;28;20058;-60
2021/04/09 02:12:36;;;;;;;15.82;6.55;;;;;;;;;;4983424;28;20038;-58
2021/04/09 02:15:03;;;;;;;16.38;5.88;;;;;;;;;;4979618;28;20061;-60
2021/04/09 02:17:30;;;;;;;12.73;5.93;;;;;;;;;;4982537;28;20150;-56
2021/04/09 02:19:56;;;;;;;12.57;5.75;;;;;;;;;;4981893;28;20043;-59
2021/04/09 02:22:22;;;;;;;18.08;6.82;;;;;;;;;;4983565;28;20042;-59
2021/04/09 02:24:49;;;;;;;15.23;6.30;;;;;;;;;;4980428;28;20046;-57
2021/04/09 02:27:16;;;;;;;18.27;5.80;;;;;;;;;;4983280;28;20071;-53
2021/04/09 02:29:43;;;;;;;15.07;5.90;;;;;;;;;;4998112;28;20035;-56
2021/04/09 02:32:10;;;;;;;14.77;6.28;;;;;;;;;;5004274;28;20102;-55
2021/04/09 02:34:37;;;;;;;14.05;5.65;;;;;;;;;;4987476;28;20031;-55
2021/04/09 02:37:03;;;;;;;17.38;7.00;;;;;;;;;;4998518;28;20084;-57
2021/04/09 02:39:30;;;;;;;13.20;5.95;;;;;;;;;;4990361;28;20038;-60
2021/04/09 02:42:04;;;;;;;14.43;6.18;;;;;;;;;;4979470;28;20062;-58
2021/04/09 02:44:30;;;;;;;20.33;6.03;;;;;;;;;;4982475;28;20050;-52
2021/04/09 02:46:57;;;;;;;14.30;6.13;;;;;;;;;;4994702;28;20476;-58
2021/04/09 02:49:26;;;;;;;17.63;6.75;;;;;;;;;;5003283;28;20092;-57
2021/04/09 02:51:53;;;;;;;14.63;5.90;;;;;;;;;;5015001;28;20034;-54
2021/04/09 02:54:20;;;;;;;17.27;6.22;;;;;;;;;;5002892;28;20050;-52
2021/04/09 02:56:46;;;;;;;17.00;6.93;;;;;;;;;;4988093;28;20214;-55
2021/04/09 02:59:13;;;;;;;17.80;6.97;;;;;;;;;;5000791;28;20058;-54
2021/04/09 03:01:40;;;;;;;20.55;6.88;;;;;;;;;;5002028;28;20039;-54
2021/04/09 03:04:06;;;;;;;16.80;6.38;;;;;;;;;;4985535;28;20034;-61
2021/04/09 03:06:34;;;;;;;19.15;7.28;;;;;;;;;;5019019;28;20045;-57
2021/04/09 03:09:00;;;;;;;18.17;7.00;;;;;;;;;;5023026;28;20145;-60
2021/04/09 03:11:26;;;;;;;22.10;6.82;;;;;;;;;;5022237;28;20057;-60
2021/04/09 03:13:54;;;;;;;18.70;6.15;;;;;;;;;;5022424;28;20053;-57
2021/04/09 03:16:21;;;;;;;16.17;6.32;;;;;;;;;;5019076;28;20049;-60
2021/04/09 03:18:47;;;;;;;17.88;6.35;;;;;;;;;;5024366;28;20048;-59
2021/04/09 03:21:13;;;;;;;16.45;6.55;;;;;;;;;;5024826;28;20071;-59
2021/04/09 03:23:39;;;;;;;16.60;6.32;;;;;;;;;;5004821;28;20045;-59
2021/04/09 03:26:05;;;;;;;20.65;6.32;;;;;;;;;;5005480;28;20041;-56
2021/04/09 03:28:31;;;;;;;20.77;7.18;;;;;;;;;;5015272;28;20037;-58
2021/04/09 03:30:58;;;;;;;16.58;6.15;;;;;;;;;;5024859;28;20052;-59
2021/04/09 03:33:25;;;;;;;13.75;5.45;;;;;;;;;;5033675;28;20034;-60
2021/04/09 03:35:51;;;;;;;18.23;6.55;;;;;;;;;;5022316;28;20045;-59
2021/04/09 03:38:18;;;;;;;17.15;6.35;;;;;;;;;;5017403;28;20060;-60
2021/04/09 03:40:44;;;;;;;20.67;6.82;;;;;;;;;;5023608;28;20049;-58
2021/04/09 03:43:11;;;;;;;17.40;6.28;;;;;;;;;;5019490;28;20053;-59
2021/04/09 03:45:37;;;;;;;19.10;6.78;;;;;;;;;;5013773;28;20038;-55
2021/04/09 03:48:03;;;;;;;16.98;5.80;;;;;;;;;;5002321;28;20026;-61
2021/04/09 03:50:30;;;;;;;15.90;6.40;;;;;;;;;;5022436;28;20034;-57
2021/04/09 03:52:57;;;;;;;15.38;6.03;;;;;;;;;;5018055;28;20054;-60
2021/04/09 03:55:23;;;;;;;19.27;6.07;;;;;;;;;;5022179;28;20052;-57
2021/04/09 03:57:49;;;;;;;21.40;6.43;;;;;;;;;;5003657;28;20111;-59
2021/04/09 04:00:17;;;;;;;18.50;6.68;;;;;;;;;;5020633;28;20045;-58
2021/04/09 04:02:43;;;;;;;15.05;6.10;;;;;;;;;;5024359;28;20387;-58
2021/04/09 04:05:09;;;;;;;16.02;5.75;;;;;;;;;;5015503;28;20106;-56
2021/04/09 04:07:36;;;;;;;16.90;7.45;;;;;;;;;;5021561;28;20088;-57
2021/04/09 04:10:03;;;;;;;14.77;5.50;;;;;;;;;;5016562;28;20413;-58
2021/04/09 04:12:29;;;;;;;19.73;6.80;;;;;;;;;;5020578;28;20045;-53
2021/04/09 04:14:55;;;;;;;18.70;6.75;;;;;;;;;;5017939;28;20045;-60
2021/04/09 04:17:21;;;;;;;17.05;6.22;;;;;;;;;;5019990;28;20077;-54
2021/04/09 04:19:47;;;;;;;18.50;6.53;;;;;;;;;;5010127;28;20057;-55
2021/04/09 04:22:13;;;;;;;15.90;6.53;;;;;;;;;;5018062;28;20034;-53
2021/04/09 04:24:40;;;;;;;17.05;6.57;;;;;;;;;;4998290;28;20053;-55
2021/04/09 04:27:06;;;;;;;14.57;5.88;;;;;;;;;;5004226;28;20034;-55
2021/04/09 04:29:32;;;;;;;16.75;6.40;;;;;;;;;;4999323;28;20054;-56
2021/04/09 04:31:58;;;;;;;14.45;6.20;;;;;;;;;;5000880;28;20048;-57
2021/04/09 04:34:24;;;;;;;13.57;6.20;;;;;;;;;;5012079;28;20081;-58
2021/04/09 04:36:50;;;;;;;13.48;5.63;;;;;;;;;;4999760;28;20050;-55
2021/04/09 04:39:16;;;;;;;14.45;5.72;;;;;;;;;;5001430;28;20128;-59
2021/04/09 04:41:44;;;;;;;13.20;5.75;;;;;;;;;;5015892;28;20074;-57
2021/04/09 04:44:10;;;;;;;13.18;5.50;;;;;;;;;;5020142;28;20115;-59
2021/04/09 04:46:36;;;;;;;13.85;6.22;;;;;;;;;;4999382;28;20304;-59
2021/04/09 04:49:02;;;;;;;12.32;5.22;;;;;;;;;;5019604;28;20106;-59
2021/04/09 04:51:28;;;;;;;17.92;6.28;;;;;;;;;;5007000;28;20053;-59
2021/04/09 04:53:54;;;;;;;23.58;6.18;;;;;;;;;;4999848;28;20050;-59
2021/04/09 04:56:20;;;;;;;15.13;6.07;;;;;;;;;;5018671;28;20127;-58
2021/04/09 04:58:47;;;;;;;15.88;5.97;;;;;;;;;;5001334;28;20050;-57
2021/04/09 05:01:14;;;;;;;18.75;6.65;;;;;;;;;;4996749;28;20042;-59
2021/04/09 05:03:40;;;;;;;15.93;6.45;;;;;;;;;;5001420;28;20095;-57
2021/04/09 05:06:06;;;;;;;19.45;5.90;;;;;;;;;;4980334;28;20066;-59
2021/04/09 05:08:32;;;;;;;19.23;7.28;;;;;;;;;;4979669;28;20043;-60
2021/04/09 05:10:59;;;;;;;29.80;8.57;;;;;;;;;;4977016;28;20404;-57
2021/04/09 05:13:25;;;;;;;16.30;7.43;;;;;;;;;;4981355;28;20034;-58
2021/04/09 05:15:52;;;;;;;15.10;6.00;;;;;;;;;;4958495;28;20035;-56
2021/04/09 05:18:18;;;;;;;17.65;6.47;;;;;;;;;;4972822;28;20057;-59
2021/04/09 05:20:44;;;;;;;17.70;6.65;;;;;;;;;;4977971;28;20043;-61
2021/04/09 05:23:11;;;;;;;16.80;6.18;;;;;;;;;;4975005;28;20047;-61
2021/04/09 05:25:37;;;;;;;14.63;6.30;;;;;;;;;;4975302;28;20054;-59
2021/04/09 05:28:03;;;;;;;14.82;6.43;;;;;;;;;;4972477;28;20050;-61
2021/04/09 05:30:29;;;;;;;14.15;6.38;;;;;;;;;;4978730;28;20066;-58
2021/04/09 05:32:56;;;;;;;14.60;6.15;;;;;;;;;;4976189;28;20057;-60
2021/04/09 05:35:24;;;;;;;15.48;6.75;;;;;;;;;;4982393;28;20054;-61
2021/04/09 05:37:51;;;;;;;13.45;5.90;;;;;;;;;;4977196;28;20045;-59
2021/04/09 05:40:18;;;;;;;13.32;5.47;;;;;;;;;;4982612;28;20481;-61
2021/04/09 05:42:44;;;;;;;16.10;6.00;;;;;;;;;;4977049;28;20026;-60
2021/04/09 05:45:11;;;;;;;16.05;6.32;;;;;;;;;;4982658;28;21022;-61
2021/04/09 05:47:37;;;;;;;22.90;8.32;;;;;;;;;;4980715;28;20403;-59
2021/04/09 05:50:05;;;;;;;16.65;7.68;;;;;;;;;;4989595;28;20045;-61
2021/04/09 05:52:30;;;;;;;15.32;6.85;;;;;;;;;;4985143;28;20042;-58
2021/04/09 05:54:56;;;;;;;16.85;6.95;;;;;;;;;;4997119;28;20101;-58
2021/04/09 05:57:22;;;;;;;21.50;6.50;;;;;;;;;;4997840;28;20054;-59
2021/04/09 05:59:50;;;;;;;17.77;5.85;;;;;;;;;;4995930;28;20038;-56
2021/04/09 06:02:17;;;;;;;12.80;5.67;;;;;;;;;;4997660;28;20062;-56
2021/04/09 06:04:43;;;;;;;18.35;7.47;;;;;;;;;;4992423;28;20035;-58
2021/04/09 06:07:09;;;;;;;22.52;7.82;;;;;;;;;;5018137;28;20435;-59
2021/04/09 06:09:35;;;;;;;18.35;7.20;;;;;;;;;;4994423;28;20046;-57
2021/04/09 06:12:04;;;;;;;16.35;6.30;;;;;;;;;;5004091;28;20539;-60
2021/04/09 06:14:30;;;;;;;15.48;5.93;;;;;;;;;;4996874;28;20042;-58
2021/04/09 06:16:56;;;;;;;13.40;5.43;;;;;;;;;;5003296;28;20057;-56
2021/04/09 06:19:21;;;;;;;15.80;6.53;;;;;;;;;;4992177;28;20079;-59
2021/04/09 06:21:47;;;;;;;13.80;5.88;;;;;;;;;;4982698;28;20143;-57
2021/04/09 06:24:14;;;;;;;16.10;7.03;;;;;;;;;;4989996;28;20038;-60
2021/04/09 06:26:40;;;;;;;13.50;5.72;;;;;;;;;;5023488;28;20041;-60
2021/04/09 06:29:06;;;;;;;16.95;6.35;;;;;;;;;;5013277;28;20173;-58
2021/04/09 06:31:32;;;;;;;15.25;6.50;;;;;;;;;;5001113;28;20394;-59
2021/04/09 06:33:58;;;;;;;16.95;6.40;;;;;;;;;;4999908;28;20050;-51
2021/04/09 06:36:24;;;;;;;14.25;6.00;;;;;;;;;;5002244;28;20042;-51
2021/04/09 06:38:50;;;;;;;13.45;6.47;;;;;;;;;;5002279;28;20038;-60
2021/04/09 06:41:17;;;;;;;15.00;6.47;;;;;;;;;;4981483;28;20050;-53
2021/04/09 06:43:43;;;;;;;18.58;6.03;;;;;;;;;;4982136;28;20070;-53
2021/04/09 06:46:10;;;;;;;23.38;6.10;;;;;;;;;;4980223;28;20058;-55
2021/04/09 06:48:35;;;;;;;15.43;6.30;;;;;;;;;;4983815;28;20403;-57
2021/04/09 06:51:04;;;;;;;14.23;5.22;;;;;;;;;;4980766;28;20062;-55
2021/04/09 06:53:31;;;;;;;12.00;5.25;;;;;;;;;;5001502;28;20119;-54
2021/04/09 06:55:57;;;;;;;12.93;5.15;;;;;;;;;;5007409;28;20049;-54
2021/04/09 06:58:24;;;;;;;15.65;5.20;;;;;;;;;;5003432;28;20038;-54
2021/04/09 07:00:51;;;;;;;14.73;5.15;;;;;;;;;;5006087;28;20052;-51
2021/04/09 07:03:17;;;;;;;14.68;5.72;;;;;;;;;;5021947;28;20120;-53
2021/04/09 07:05:43;;;;;;;14.73;5.35;;;;;;;;;;5012554;28;20495;-54
2021/04/09 07:08:09;;;;;;;12.27;5.75;;;;;;;;;;5002076;28;20121;-57
2021/04/09 07:10:35;;;;;;;11.27;5.22;;;;;;;;;;5015983;28;20054;-56
2021/04/09 07:13:05;;;;;;;14.32;5.32;;;;;;;;;;5020163;28;20037;-57
2021/04/09 07:15:37;;;;;;;12.88;5.53;;;;;;;;;;5022495;28;20152;-56
2021/04/09 07:18:04;;;;;;;13.88;5.55;;;;;;;;;;5001308;28;20042;-52
2021/04/09 07:20:30;;;;;;;11.65;5.10;;;;;;;;;;5003581;28;20045;-52
2021/04/09 07:22:57;;;;;;;12.25;5.32;;;;;;;;;;5017272;28;20050;-49
2021/04/09 07:25:24;;;;;;;10.73;5.03;;;;;;;;;;5022179;28;20045;-53
2021/04/09 07:27:51;;;;;;;16.10;5.25;;;;;;;;;;5018099;28;20037;-50
2021/04/09 07:30:18;;;;;;;15.88;5.43;;;;;;;;;;5020605;28;20046;-51
2021/04/09 07:32:45;;;;;;;21.92;6.57;;;;;;;;;;5005146;28;20046;-52
2021/04/09 07:35:13;;;;;;;15.30;4.90;;;;;;;;;;4988889;28;20120;-57
2021/04/09 07:37:53;;;;;;;11.77;4.85;;;;;;;;;;4968002;28;20051;-53
2021/04/09 07:40:26;;;;;;;12.43;5.40;;;;;;;;;;4961786;28;20061;-55
2021/04/09 07:42:52;;;;;;;12.43;5.03;;;;;;;;;;4967454;28;20140;-58
2021/04/09 07:45:20;;;;;;;14.63;5.18;;;;;;;;;;4980665;28;20046;-51
2021/04/09 07:48:03;;;;;;;12.23;5.03;;;;;;;;;;4977367;28;20062;-55
2021/04/09 07:50:33;;;;;;;16.23;5.10;;;;;;;;;;4981705;28;20034;-53
2021/04/09 07:53:00;;;;;;;10.68;4.80;;;;;;;;;;4990980;28;20039;-49
2021/04/09 07:55:28;;;;;;;13.40;4.85;;;;;;;;;;4981689;28;20062;-51
2021/04/09 07:57:55;;;;;;;11.90;3.78;;;;;;;;;;4977076;28;20039;-54
2021/04/09 08:00:22;;;;;;;11.32;4.78;;;;;;;;;;4979912;28;20391;-59
2021/04/09 08:02:49;;;;;;;12.98;4.80;;;;;;;;;;4973374;28;20473;-53
2021/04/09 08:05:17;;;;;;;10.30;3.95;;;;;;;;;;4971303;28;20042;-56
2021/04/09 08:07:43;;;;;;;8.52;3.88;;;;;;;;;;4978036;28;20042;-53
2021/04/09 08:10:10;;;;;;;9.50;4.07;;;;;;;;;;4980635;28;20120;-55
2021/04/09 08:12:38;;;;;;;12.30;4.75;;;;;;;;;;4982870;28;20039;-57
2021/04/09 08:15:14;;;;;;;11.00;4.85;;;;;;;;;;4978221;28;20047;-51
2021/04/09 08:17:41;;;;;;;12.20;4.85;;;;;;;;;;4981610;28;20039;-55
2021/04/09 08:20:11;;;;;;;14.20;5.00;;;;;;;;;;4981330;28;20300;-54
2021/04/09 08:22:39;;;;;;;10.00;4.10;;;;;;;;;;4996768;28;20038;-53
2021/04/09 08:25:06;;;;;;;12.55;4.43;;;;;;;;;;4979834;28;20046;-53
2021/04/09 08:27:32;;;;;;;15.88;4.70;;;;;;;;;;4981271;28;20053;-54
2021/04/09 08:29:59;;;;;;;10.05;4.78;;;;;;;;;;4980253;28;20061;-53
2021/04/09 08:32:25;;;;;;;10.18;4.10;;;;;;;;;;4983363;28;20193;-51
2021/04/09 08:34:51;;;;;;;12.57;4.35;;;;;;;;;;4978853;28;20038;-49
2021/04/09 08:37:20;;;;;;;10.93;4.43;;;;;;;;;;4982081;28;20039;-53
2021/04/09 08:39:47;;;;;;;12.05;4.30;;;;;;;;;;4979178;28;20042;-50
2021/04/09 08:42:15;;;;;;;12.15;4.40;;;;;;;;;;4981544;28;20034;-52
2021/04/09 08:44:41;;;;;;;8.57;3.90;;;;;;;;;;5000926;28;20039;-55
2021/04/09 08:47:08;;;;;;;12.85;5.07;;;;;;;;;;5001562;28;20057;-51
2021/04/09 08:49:34;;;;;;;9.07;4.60;;;;;;;;;;4995534;28;20074;-55
2021/04/09 08:52:01;;;;;;;11.75;4.93;;;;;;;;;;4999593;28;20049;-51
2021/04/09 08:54:29;;;;;;;11.40;4.28;;;;;;;;;;4999053;28;20075;-53
2021/04/09 08:56:56;;;;;;;11.65;4.57;;;;;;;;;;4992683;28;20110;-53
2021/04/09 08:59:44;;;;;;;12.60;4.38;;;;;;;;;;4993583;28;20058;-54
2021/04/09 09:02:15;;;;;;;11.02;4.05;;;;;;;;;;5000990;28;20038;-53
2021/04/09 09:04:41;;;;;;;13.93;4.80;;;;;;;;;;4988961;28;20034;-54
2021/04/09 09:07:07;;;;;;;12.60;3.40;;;;;;;;;;4988411;28;20054;-52
2021/04/09 09:09:35;;;;;;;8.77;3.97;;;;;;;;;;4983715;28;20335;-56
2021/04/09 09:12:02;;;;;;;11.23;4.07;;;;;;;;;;4962817;28;20039;-54
2021/04/09 09:14:44;;;;;;;10.20;4.50;;;;;;;;;;4964438;28;20041;-52
2021/04/09 09:17:34;;;;;;;12.02;4.10;;;;;;;;;;4976496;28;20086;-53
2021/04/09 09:20:07;;;;;;;9.95;4.53;;;;;;;;;;5001701;28;20358;-58
2021/04/09 09:22:41;;;;;;;10.35;4.22;;;;;;;;;;4978375;28;20050;-51
2021/04/09 09:25:08;;;;;;;13.65;4.13;;;;;;;;;;4982662;28;20070;-54
2021/04/09 09:27:49;;;;;;;10.25;4.40;;;;;;;;;;4983571;28;20052;-53
2021/04/09 09:30:31;;;;;;;11.75;4.38;;;;;;;;;;5002022;28;20058;-55
2021/04/09 09:33:15;;;;;;;8.43;4.43;;;;;;;;;;5013014;28;20038;-54
2021/04/09 09:36:01;;;;;;;7.57;3.25;;;;;;;;;;5003440;28;20053;-52
2021/04/09 09:38:47;;;;;;;12.38;4.07;;;;;;;;;;5012293;28;20056;-56
2021/04/09 09:41:29;;;;;;;12.40;4.22;;;;;;;;;;4983828;28;20068;-52
2021/04/09 09:43:56;;;;;;;17.35;4.45;;;;;;;;;;4981605;28;20045;-53
2021/04/09 09:46:37;;;;;;;8.40;3.92;;;;;;;;;;5034712;28;20036;-53
2021/04/09 09:49:07;;;;;;;12.20;4.17;;;;;;;;;;5016596;28;20389;-55
2021/04/09 09:51:37;;;;;;;12.75;4.38;;;;;;;;;;5020819;28;20038;-54
2021/04/09 09:54:03;;;;;;;7.93;3.88;;;;;;;;;;5012299;28;20100;-55
2021/04/09 09:56:30;;;;;;;8.65;3.88;;;;;;;;;;4983650;28;20051;-54
2021/04/09 09:58:57;;;;;;;10.15;4.22;;;;;;;;;;4994685;28;20149;-53
2021/04/09 10:01:24;;;;;;;11.60;4.68;;;;;;;;;;5002801;28;20354;-50
2021/04/09 10:03:50;;;;;;;11.73;3.95;;;;;;;;;;5013704;28;20037;-58
2021/04/09 10:06:16;;;;;;;7.75;3.67;;;;;;;;;;5021294;28;20038;-57
2021/04/09 10:08:43;;;;;;;8.82;3.17;;;;;;;;;;5017976;28;20053;-48
2021/04/09 10:11:15;;;;;;;11.93;3.40;;;;;;;;;;5024338;28;20110;-55
2021/04/09 10:13:42;;;;;;;10.20;3.38;;;;;;;;;;5021515;28;20093;-53
2021/04/09 10:16:09;;;;;;;8.75;3.85;;;;;;;;;;5023244;28;20127;-49
2021/04/09 10:18:36;;;;;;;8.02;3.95;;;;;;;;;;5008955;28;20050;-51
2021/04/09 10:21:08;;;;;;;9.98;3.92;;;;;;;;;;5002084;28;20042;-53
2021/04/09 10:23:34;;;;;;;8.98;3.50;;;;;;;;;;5002833;28;20073;-52
2021/04/09 10:26:01;;;;;;;9.82;3.33;;;;;;;;;;5022264;28;20052;-55
2021/04/09 10:28:27;;;;;;;5.72;2.75;;;;;;;;;;5016320;28;20049;-54
2021/04/09 10:30:53;;;;;;;9.25;2.90;;;;;;;;;;5000687;28;20038;-52
2021/04/09 10:33:23;;;;;;;8.20;2.50;;;;;;;;;;4995399;28;20043;-56
2021/04/09 10:35:49;;;;;;;8.07;2.50;;;;;;;;;;5000372;28;20057;-48
2021/04/09 10:38:15;;;;;;;8.85;2.60;;;;;;;;;;5003845;28;20043;-49
2021/04/09 10:40:54;;;;;;;7.47;2.70;;;;;;;;;;5017417;28;20050;-55
2021/04/09 10:43:19;;;;;;;;;;;;;;;;;;5022761;28;20049;-52
2021/04/09 10:45:45;;;;;;;7.88;2.50;;;;;;;;;;5004375;28;19936;-52
2021/04/09 10:48:11;;;;;;;9.13;3.20;;;;;;;;;;4983092;28;20038;-51
2021/04/09 10:50:50;;;;;;;8.07;2.63;;;;;;;;;;4994361;28;20056;-55
2021/04/09 10:53:16;;;;;;;8.23;2.30;;;;;;;;;;5000949;28;20046;-53
2021/04/09 10:55:42;;;;;;;6.85;2.30;;;;;;;;;;4998177;28;20127;-55
2021/04/09 10:58:13;;;;;;;5.90;2.10;;;;;;;;;;5003498;28;20046;-56
2021/04/09 11:00:40;;;;;;;5.22;2.30;;;;;;;;;;5008957;28;20087;-56
2021/04/09 11:03:07;;;;;;;5.30;1.98;;;;;;;;;;5022841;28;20046;-54
2021/04/09 11:05:33;;;;;;;7.30;2.45;;;;;;;;;;5008477;28;20134;-49
2021/04/09 11:07:59;;;;;;;10.32;2.03;;;;;;;;;;5003460;28;20046;-56
2021/04/09 11:10:30;;;;;;;5.72;1.92;;;;;;;;;;4999281;28;20119;-54
2021/04/09 11:12:56;;;;;;;6.30;2.17;;;;;;;;;;5010161;28;20053;-54
2021/04/09 11:15:22;;;;;;;7.78;2.33;;;;;;;;;;5014287;28;20034;-56
2021/04/09 11:17:52;;;;;;;5.00;2.13;;;;;;;;;;5000934;28;20042;-57
2021/04/09 11:20:22;;;;;;;14.60;2.30;;;;;;;;;;4998271;28;20054;-51
2021/04/09 11:22:59;;;;;;;5.85;2.10;;;;;;;;;;5001616;28;20030;-53
2021/04/09 11:25:30;;;;;;;5.35;2.42;;;;;;;;;;5002143;28;20070;-55
2021/04/09 11:27:56;;;;;;;4.97;1.92;;;;;;;;;;5001994;28;20034;-53
2021/04/09 11:30:22;;;;;;;5.63;2.10;;;;;;;;;;5002117;28;20042;-57
2021/04/09 11:32:49;;;;;;;5.13;2.38;;;;;;;;;;4998904;28;20041;-56
2021/04/09 11:35:16;;;;;;;7.55;2.60;;;;;;;;;;4980951;28;20039;-52
2021/04/09 11:37:43;;;;;;;5.70;2.75;;;;;;;;;;4995460;28;20045;-49
2021/04/09 11:40:10;;;;;;;12.05;2.88;;;;;;;;;;5019570;28;20046;-54
2021/04/09 11:42:43;;;;;;;5.47;2.33;;;;;;;;;;5001470;28;20038;-52
2021/04/09 11:45:11;;;;;;;7.03;2.50;;;;;;;;;;4987749;28;20046;-55
2021/04/09 11:47:38;;;;;;;7.93;2.45;;;;;;;;;;5012005;28;20037;-57
2021/04/09 11:50:14;;;;;;;6.35;2.65;;;;;;;;;;4980847;28;20086;-56
2021/04/09 11:52:58;;;;;;;11.40;2.78;;;;;;;;;;4977129;28;20141;-52
2021/04/09 11:55:26;;;;;;;12.10;2.50;;;;;;;;;;4981606;28;20030;-52
2021/04/09 11:57:53;;;;;;;7.10;2.30;;;;;;;;;;4977975;28;20100;-56
2021/04/09 12:00:20;;;;;;;7.78;2.40;;;;;;;;;;4981450;28;20049;-56
2021/04/09 12:02:51;;;;;;;5.78;2.38;;;;;;;;;;4969105;28;20501;-59
2021/04/09 12:05:17;;;;;;;4.47;2.13;;;;;;;;;;4973016;28;20042;-58
2021/04/09 12:07:43;;;;;;;6.40;2.30;;;;;;;;;;4986265;28;20049;-54
2021/04/09 12:10:09;;;;;;;4.93;2.00;;;;;;;;;;5000309;28;20172;-58
2021/04/09 12:12:35;;;;;;;5.25;1.98;;;;;;;;;;4994628;28;20173;-56
2021/04/09 12:15:03;;;;;;;6.22;2.47;;;;;;;;;;4982144;28;20047;-56
2021/04/09 12:17:29;;;;;;;3.22;1.85;;;;;;;;;;4978633;28;20039;-58
2021/04/09 12:19:56;;;;;;;6.03;2.28;;;;;;;;;;4998515;28;20031;-57
2021/04/09 12:22:23;;;;;;;7.20;1.83;;;;;;;;;;4973861;28;20062;-55
2021/04/09 12:24:49;;;;;;;10.27;2.28;;;;;;;;;;4980567;28;20043;-55
2021/04/09 12:27:16;;;;;;;5.97;2.20;;;;;;;;;;4982533;28;20043;-56
2021/04/09 12:29:42;;;;;;;7.40;2.50;;;;;;;;;;4977803;28;20039;-56
2021/04/09 12:32:10;;;;;;;5.90;2.08;;;;;;;;;;4997411;28;20116;-52
2021/04/09 12:34:36;;;;;;;5.78;2.25;;;;;;;;;;5006688;28;20034;-58
2021/04/09 12:37:03;;;;;;;7.50;3.00;;;;;;;;;;5001851;28;20054;-53
2021/04/09 12:39:29;;;;;;;4.95;2.10;;;;;;;;;;4987917;28;20042;-59
2021/04/09 12:41:55;;;;;;;4.53;2.05;;;;;;;;;;4982022;28;20057;-54
2021/04/09 12:44:22;;;;;;;7.00;2.45;;;;;;;;;;4998885;28;20097;-56
2021/04/09 12:46:49;;;;;;;7.93;2.25;;;;;;;;;;5015990;28;20041;-54
2021/04/09 12:49:15;;;;;;;9.02;2.53;;;;;;;;;;4989810;28;20042;-57
2021/04/09 12:51:42;;;;;;;8.57;2.30;;;;;;;;;;4986385;28;20043;-53
2021/04/09 12:54:08;;;;;;;7.95;2.83;;;;;;;;;;4978295;28;20948;-55
2021/04/09 12:56:34;;;;;;;11.00;3.00;;;;;;;;;;4982216;28;20053;-55
2021/04/09 12:59:00;;;;;;;10.15;3.00;;;;;;;;;;4995902;28;20050;-55
2021/04/09 13:01:26;;;;;;;5.88;2.70;;;;;;;;;;4980226;28;20041;-54
2021/04/09 13:03:52;;;;;;;5.13;2.42;;;;;;;;;;4981415;28;20043;-53
2021/04/09 13:06:19;;;;;;;7.40;3.05;;;;;;;;;;5007015;28;20116;-60
2021/04/09 13:08:46;;;;;;;6.53;2.42;;;;;;;;;;4984080;28;20042;-57
2021/04/09 13:11:12;;;;;;;6.93;2.55;;;;;;;;;;4990680;28;20050;-57
2021/04/09 13:13:38;;;;;;;6.78;2.90;;;;;;;;;;5002600;28;20037;-57
2021/04/09 13:16:05;;;;;;;6.75;2.83;;;;;;;;;;4987736;28;20050;-58
2021/04/09 13:18:31;;;;;;;7.55;2.60;;;;;;;;;;4997193;28;20042;-60
2021/04/09 13:20:59;;;;;;;9.35;3.20;;;;;;;;;;5009620;28;20046;-55
2021/04/09 13:23:27;;;;;;;8.40;3.10;;;;;;;;;;5000674;28;20079;-57
2021/04/09 13:25:53;;;;;;;5.80;2.70;;;;;;;;;;4990893;28;20047;-57
2021/04/09 13:28:19;;;;;;;6.22;2.95;;;;;;;;;;4981342;28;20109;-56
2021/04/09 13:30:47;;;;;;;9.27;3.15;;;;;;;;;;4977333;28;20046;-57
2021/04/09 13:33:13;;;;;;;7.57;3.22;;;;;;;;;;4981045;28;20043;-57
2021/04/09 13:35:40;;;;;;;9.90;2.88;;;;;;;;;;4977746;28;20031;-56
2021/04/09 13:38:10;;;;;;;6.80;2.78;;;;;;;;;;4997320;28;20042;-57
2021/04/09 13:40:38;;;;;;;5.40;2.50;;;;;;;;;;4979983;28;20042;-57
2021/04/09 13:43:04;;;;;;;6.65;2.38;;;;;;;;;;4999943;28;20038;-58
2021/04/09 13:45:30;;;;;;;4.88;2.00;;;;;;;;;;4994451;28;20042;-59
2021/04/09 13:47:58;;;;;;;6.07;2.13;;;;;;;;;;4982404;28;20086;-58
2021/04/09 13:50:25;;;;;;;4.40;1.90;;;;;;;;;;4983344;28;20042;-57
2021/04/09 13:52:51;;;;;;;6.88;2.58;;;;;;;;;;4979291;28;20119;-59
2021/04/09 13:55:17;;;;;;;4.20;2.08;;;;;;;;;;4982781;28;20046;-57
2021/04/09 13:57:44;;;;;;;9.48;2.63;;;;;;;;;;4990714;28;20034;-55
2021/04/09 14:00:10;;;;;;;9.70;2.90;;;;;;;;;;5002870;28;20042;-58
2021/04/09 14:02:36;;;;;;;6.03;2.20;;;;;;;;;;4998997;28;20046;-57
2021/04/09 14:05:02;;;;;;;5.00;2.15;;;;;;;;;;5003516;28;20067;-58
2021/04/09 14:07:28;;;;;;;5.10;2.13;;;;;;;;;;4993272;28;20042;-60
2021/04/09 14:09:54;;;;;;;4.63;2.00;;;;;;;;;;4984281;28;20044;-58
2021/04/09 14:12:20;;;;;;;5.38;1.90;;;;;;;;;;4982833;28;20034;-56
2021/04/09 14:14:48;;;;;;;6.72;2.15;;;;;;;;;;4981534;28;20042;-57
2021/04/09 14:17:16;;;;;;;5.75;2.00;;;;;;;;;;4996684;28;20035;-52
2021/04/09 14:19:42;;;;;;;5.72;2.10;;;;;;;;;;4982195;28;20042;-56
2021/04/09 14:22:08;;;;;;;6.75;2.10;;;;;;;;;;4983164;28;20043;-57
2021/04/09 14:24:34;;;;;;;6.30;2.15;;;;;;;;;;4979532;28;20058;-57
2021/04/09 14:27:00;;;;;;;4.88;1.55;;;;;;;;;;4982022;28;20056;-57
2021/04/09 14:29:26;;;;;;;5.63;1.60;;;;;;;;;;4978163;28;20053;-57
2021/04/09 14:31:54;;;;;;;5.60;1.75;;;;;;;;;;4981800;28;20058;-58
2021/04/09 14:34:19;;;;;;;3.65;1.38;;;;;;;;;;4980312;28;20046;-56
2021/04/09 14:36:45;;;;;;;5.20;1.60;;;;;;;;;;4982526;28;20046;-58